createdAt,value
2022-09-28T00:00:14.430Z,2.10
2022-09-28T00:02:43.715Z,1.77
2022-09-28T00:05:13.697Z,2.03
2022-09-28T00:07:44.844Z,1.40
2022-09-28T00:10:14.007Z,1.97
2022-09-28T00:12:43.316Z,1.87
2022-09-28T00:15:12.901Z,1.97
2022-09-28T00:17:44.936Z,1.50
2022-09-28T00:20:14.496Z,1.10
2022-09-28T00:22:45.321Z,2.13
2022-09-28T00:25:16.976Z,1.80
2022-09-28T00:27:51.762Z,1.70
2022-09-28T00:30:21.224Z,1.40
2022-09-28T00:32:50.582Z,2.17
2022-09-28T00:35:19.757Z,1.67
2022-09-28T00:37:52.231Z,1.40
2022-09-28T00:40:21.514Z,1.63
2022-09-28T00:42:50.781Z,1.50
2022-09-28T00:45:20.053Z,1.83
2022-09-28T00:47:52.238Z,1.47
2022-09-28T00:50:28.365Z,1.67
2022-09-28T00:53:01.402Z,1.87
2022-09-28T00:55:36.078Z,1.77
2022-09-28T00:58:08.628Z,2.53
2022-09-28T01:00:40.639Z,1.70
2022-09-28T01:03:10.958Z,1.80
2022-09-28T01:05:41.594Z,2.00
2022-09-28T01:08:13.572Z,1.70
2022-09-28T01:10:43.642Z,1.60
2022-09-28T01:13:13.504Z,1.50
2022-09-28T01:15:48.595Z,1.63
2022-09-28T01:18:23.905Z,1.40
2022-09-28T01:21:05.421Z,1.30
2022-09-28T01:24:11.068Z,1.80
2022-09-28T01:27:07.681Z,1.43
2022-09-28T01:29:53.542Z,1.10
2022-09-28T01:32:32.069Z,1.33
2022-09-28T01:35:06.725Z,1.30
2022-09-28T01:37:41.911Z,1.43
2022-09-28T01:40:12.149Z,1.80
2022-09-28T01:42:45.455Z,1.93
2022-09-28T01:45:18.613Z,1.87
2022-09-28T01:47:51.371Z,1.93
2022-09-28T01:50:24.543Z,1.83
2022-09-28T01:52:55.948Z,1.90
2022-09-28T01:55:30.726Z,1.93
2022-09-28T01:58:04.567Z,1.90
2022-09-28T02:00:34.944Z,1.90
2022-09-28T02:03:08.499Z,1.40
2022-09-28T02:05:40.576Z,1.30
2022-09-28T02:08:13.101Z,1.67
2022-09-28T02:10:45.956Z,1.20
2022-09-28T02:13:20.562Z,1.27
2022-09-28T02:15:55.352Z,1.60
2022-09-28T02:18:24.792Z,1.50
2022-09-28T02:21:00.444Z,1.33
2022-09-28T02:23:31.265Z,1.60
2022-09-28T02:26:04.920Z,1.90
2022-09-28T02:28:35.634Z,1.63
2022-09-28T02:31:05.377Z,1.70
2022-09-28T02:33:37.855Z,1.70
2022-09-28T02:36:07.808Z,1.20
2022-09-28T02:38:38.680Z,1.03
2022-09-28T02:41:13.595Z,1.47
2022-09-28T02:43:55.216Z,1.70
2022-09-28T02:46:31.407Z,1.60
2022-09-28T02:49:24.361Z,1.30
2022-09-28T02:52:23.420Z,1.27
2022-09-28T02:55:20.943Z,1.63
2022-09-28T02:58:09.849Z,1.80
2022-09-28T03:00:46.684Z,1.40
2022-09-28T03:03:20.846Z,1.60
2022-09-28T03:06:01.385Z,1.43
2022-09-28T03:08:35.676Z,1.87
2022-09-28T03:11:07.119Z,1.37
2022-09-28T03:13:37.706Z,1.70
2022-09-28T03:16:13.812Z,1.00
2022-09-28T03:18:43.500Z,1.40
2022-09-28T03:21:14.089Z,1.80
2022-09-28T03:23:45.230Z,1.50
2022-09-28T03:26:16.940Z,1.30
2022-09-28T03:28:46.649Z,1.67
2022-09-28T03:31:20.954Z,1.73
2022-09-28T03:33:50.722Z,1.43
2022-09-28T03:36:20.190Z,1.83
2022-09-28T03:38:49.798Z,1.43
2022-09-28T03:41:20.066Z,1.93
2022-09-28T03:43:53.007Z,1.60
2022-09-28T03:46:23.940Z,1.70
2022-09-28T03:48:53.606Z,1.37
2022-09-28T03:51:22.827Z,2.03
2022-09-28T03:53:52.355Z,1.87
2022-09-28T03:56:22.061Z,2.53
2022-09-28T03:58:51.451Z,2.60
2022-09-28T04:01:22.496Z,2.17
2022-09-28T04:03:56.058Z,2.03
2022-09-28T04:06:25.786Z,1.50
2022-09-28T04:08:55.486Z,1.70
2022-09-28T04:11:25.488Z,1.70
2022-09-28T04:13:54.966Z,1.47
2022-09-28T04:16:26.422Z,1.33
2022-09-28T04:18:56.738Z,1.80
2022-09-28T04:21:26.750Z,1.47
2022-09-28T04:23:58.202Z,1.40
2022-09-28T04:26:29.144Z,1.67
2022-09-28T04:29:16.288Z,1.63
2022-09-28T04:31:49.793Z,2.00
2022-09-28T04:34:21.136Z,1.67
2022-09-28T04:36:51.509Z,2.43
2022-09-28T04:39:21.670Z,2.03
2022-09-28T04:41:51.349Z,1.40
2022-09-28T04:44:23.153Z,2.07
2022-09-28T04:46:56.150Z,1.50
2022-09-28T04:49:25.813Z,1.60
2022-09-28T04:51:55.295Z,2.27
2022-09-28T04:54:24.954Z,2.33
2022-09-28T04:56:54.314Z,2.30
2022-09-28T04:59:23.876Z,2.23
2022-09-28T05:01:55.046Z,1.80
2022-09-28T05:04:26.264Z,2.40
2022-09-28T05:06:55.714Z,2.67
2022-09-28T05:09:25.785Z,2.47
2022-09-28T05:11:55.185Z,3.10
2022-09-28T05:14:24.862Z,3.40
2022-09-28T05:16:56.203Z,2.37
2022-09-28T05:19:25.798Z,2.30
2022-09-28T05:21:58.083Z,2.80
2022-09-28T05:24:27.579Z,2.30
2022-09-28T05:26:57.162Z,2.00
2022-09-28T05:29:31.341Z,1.93
2022-09-28T05:32:03.061Z,2.00
2022-09-28T05:34:33.147Z,2.80
2022-09-28T05:37:03.191Z,2.53
2022-09-28T05:39:32.699Z,2.13
2022-09-28T05:42:02.247Z,3.13
2022-09-28T05:44:32.720Z,3.37
2022-09-28T05:47:03.662Z,3.07
2022-09-28T05:49:33.492Z,3.10
2022-09-28T05:52:03.655Z,4.83
2022-09-28T05:54:33.736Z,5.20
2022-09-28T05:57:03.482Z,4.50
2022-09-28T05:59:35.285Z,4.30
2022-09-28T06:02:09.036Z,4.70
2022-09-28T06:04:39.084Z,4.07
2022-09-28T06:07:08.628Z,4.00
2022-09-28T06:09:38.558Z,3.67
2022-09-28T06:12:08.592Z,3.60
2022-09-28T06:14:39.101Z,2.27
2022-09-28T06:17:10.390Z,2.87
2022-09-28T06:19:39.691Z,3.03
2022-09-28T06:22:09.521Z,2.43
2022-09-28T06:24:39.014Z,2.43
2022-09-28T06:27:08.379Z,2.33
2022-09-28T06:29:37.483Z,2.13
2022-09-28T06:32:09.245Z,2.17
2022-09-28T06:34:38.823Z,2.47
2022-09-28T06:37:08.845Z,2.40
2022-09-28T06:39:38.355Z,2.00
2022-09-28T06:42:08.427Z,1.87
2022-09-28T06:44:38.019Z,2.27
2022-09-28T06:47:09.698Z,1.90
2022-09-28T06:49:39.618Z,2.23
2022-09-28T06:52:09.094Z,1.80
2022-09-28T06:54:39.495Z,2.43
2022-09-28T06:57:08.864Z,1.70
2022-09-28T06:59:42.802Z,2.43
2022-09-28T07:02:15.038Z,2.23
2022-09-28T07:04:44.876Z,1.70
2022-09-28T07:07:14.912Z,2.30
2022-09-28T07:09:49.400Z,2.30
2022-09-28T07:12:20.715Z,2.00
2022-09-28T07:14:50.561Z,2.17
2022-09-28T07:17:21.477Z,2.60
2022-09-28T07:19:52.861Z,1.93
2022-09-28T07:22:34.896Z,1.70
2022-09-28T07:25:10.129Z,2.30
2022-09-28T07:27:39.710Z,1.90
2022-09-28T07:30:10.198Z,2.13
2022-09-28T07:32:41.420Z,3.40
2022-09-28T07:35:10.863Z,2.00
2022-09-28T07:37:40.146Z,2.27
2022-09-28T07:40:28.938Z,2.10
2022-09-28T07:42:58.443Z,2.30
2022-09-28T07:45:30.609Z,2.13
2022-09-28T07:48:01.536Z,2.00
2022-09-28T07:50:30.901Z,2.13
2022-09-28T07:53:00.630Z,2.37
2022-09-28T07:55:29.845Z,2.80
2022-09-28T07:58:01.856Z,1.77
2022-09-28T08:00:34.318Z,1.83
2022-09-28T08:03:05.203Z,1.77
2022-09-28T08:05:36.120Z,2.00
2022-09-28T08:08:05.395Z,1.90
2022-09-28T08:10:34.949Z,1.90
2022-09-28T08:13:06.474Z,2.10
2022-09-28T08:15:38.399Z,2.33
2022-09-28T08:18:10.567Z,2.53
2022-09-28T08:20:57.579Z,3.17
2022-09-28T08:23:27.403Z,3.03
2022-09-28T08:25:56.828Z,3.93
2022-09-28T08:28:26.699Z,3.00
2022-09-28T08:30:56.619Z,2.80
2022-09-28T08:33:27.805Z,2.70
2022-09-28T08:35:58.495Z,2.63
2022-09-28T08:38:29.091Z,4.03
2022-09-28T08:41:06.546Z,3.77
2022-09-28T08:44:05.286Z,4.90
2022-09-28T08:46:37.297Z,4.23
2022-09-28T08:49:24.576Z,3.30
2022-09-28T08:51:58.811Z,4.87
2022-09-28T08:54:34.926Z,5.00
2022-09-28T08:57:08.829Z,4.07
2022-09-28T08:59:46.619Z,4.47
2022-09-28T09:02:19.934Z,5.10
2022-09-28T09:04:51.780Z,4.13
2022-09-28T09:07:47.806Z,5.17
2022-09-28T09:10:33.985Z,6.60
2022-09-28T09:13:24.199Z,6.10
2022-09-28T09:16:01.627Z,5.03
2022-09-28T09:18:37.939Z,4.70
2022-09-28T09:21:14.084Z,4.43
2022-09-28T09:23:54.229Z,4.13
2022-09-28T09:26:35.350Z,3.73
2022-09-28T09:29:23.050Z,4.00
2022-09-28T09:32:11.852Z,3.90
2022-09-28T09:34:52.965Z,2.73
2022-09-28T09:37:44.437Z,2.77
2022-09-28T09:40:30.523Z,3.67
2022-09-28T09:43:12.638Z,3.43
2022-09-28T09:45:53.208Z,3.40
2022-09-28T09:48:27.069Z,3.50
2022-09-28T09:51:00.233Z,3.37
2022-09-28T09:53:37.755Z,3.30
2022-09-28T09:56:15.387Z,2.87
2022-09-28T09:58:48.836Z,2.90
2022-09-28T10:01:21.886Z,3.53
2022-09-28T10:03:53.172Z,3.60
2022-09-28T10:06:27.613Z,3.97
2022-09-28T10:09:04.913Z,3.33
2022-09-28T10:11:37.158Z,4.10
2022-09-28T10:14:08.257Z,3.27
2022-09-28T10:16:37.988Z,3.90
2022-09-28T10:19:09.667Z,3.77
2022-09-28T10:21:41.290Z,4.17
2022-09-28T10:24:19.198Z,3.47
2022-09-28T10:26:51.731Z,3.63
2022-09-28T10:29:23.538Z,3.70
2022-09-28T10:31:53.628Z,3.17
2022-09-28T10:34:28.552Z,3.00
2022-09-28T10:37:00.704Z,2.67
2022-09-28T10:39:34.371Z,3.00
2022-09-28T10:42:06.952Z,2.70
2022-09-28T10:44:44.963Z,3.33
2022-09-28T10:47:18.269Z,3.60
2022-09-28T10:49:49.499Z,2.83
2022-09-28T10:52:40.095Z,3.23
2022-09-28T10:55:39.061Z,3.37
2022-09-28T10:58:28.007Z,3.00
2022-09-28T11:01:05.291Z,2.90
2022-09-28T11:03:34.861Z,2.70
2022-09-28T11:06:06.669Z,3.07
2022-09-28T11:08:38.963Z,3.23
2022-09-28T11:11:12.559Z,3.70
2022-09-28T11:13:44.666Z,3.47
2022-09-28T11:16:26.379Z,3.03
2022-09-28T11:18:55.696Z,3.83
2022-09-28T11:21:27.398Z,2.70
2022-09-28T11:24:08.321Z,4.20
2022-09-28T11:26:43.545Z,3.97
2022-09-28T11:29:22.927Z,3.43
2022-09-28T11:31:53.427Z,4.30
2022-09-28T11:34:36.512Z,2.70
2022-09-28T11:37:39.722Z,3.50
2022-09-28T11:40:21.842Z,4.00
2022-09-28T11:43:00.306Z,4.03
2022-09-28T11:45:42.532Z,3.70
2022-09-28T11:48:15.772Z,2.93
2022-09-28T11:50:50.080Z,2.73
2022-09-28T11:53:24.720Z,3.07
2022-09-28T11:55:58.877Z,3.10
2022-09-28T11:58:34.413Z,3.10
2022-09-28T12:01:07.062Z,2.97
2022-09-28T12:03:42.211Z,3.23
2022-09-28T12:06:16.947Z,3.37
2022-09-28T12:08:52.083Z,3.10
2022-09-28T12:11:25.236Z,3.87
2022-09-28T12:13:58.105Z,3.20
2022-09-28T12:19:22.484Z,3.10
2022-09-28T12:21:53.077Z,3.40
2022-09-28T12:24:26.367Z,2.73
2022-09-28T12:26:58.611Z,3.50
2022-09-28T12:29:33.288Z,3.53
2022-09-28T12:32:09.333Z,3.77
2022-09-28T12:34:38.478Z,2.67
2022-09-28T12:37:25.810Z,3.10
2022-09-28T12:40:08.008Z,2.77
2022-09-28T12:42:49.483Z,2.80
2022-09-28T12:46:10.584Z,3.30
2022-09-28T12:49:24.090Z,4.30
2022-09-28T12:51:49.175Z,4.17
2022-09-28T12:54:44.343Z,3.20
2022-09-28T12:57:37.706Z,3.70
2022-09-28T13:00:10.278Z,3.87
2022-09-28T13:02:57.507Z,4.07
2022-09-28T13:05:46.665Z,2.87
2022-09-28T13:08:19.549Z,2.83
2022-09-28T13:10:53.528Z,3.87
2022-09-28T13:13:34.756Z,2.53
2022-09-28T13:16:09.709Z,3.40
2022-09-28T13:18:45.150Z,3.27
2022-09-28T13:21:24.423Z,3.00
2022-09-28T13:24:08.761Z,3.33
2022-09-28T13:26:47.182Z,2.90
2022-09-28T13:29:19.272Z,3.17
2022-09-28T13:31:50.636Z,3.20
2022-09-28T13:34:22.705Z,2.87
2022-09-28T13:37:12.180Z,2.93
2022-09-28T13:39:52.879Z,2.73
2022-09-28T13:42:50.831Z,3.20
2022-09-28T13:45:40.360Z,2.27
2022-09-28T13:48:17.347Z,2.60
2022-09-28T13:51:06.171Z,2.70
2022-09-28T13:53:45.484Z,2.17
2022-09-28T13:56:27.026Z,2.87
2022-09-28T13:58:59.740Z,2.80
2022-09-28T14:01:31.243Z,2.70
2022-09-28T14:04:15.914Z,2.30
2022-09-28T14:06:49.426Z,2.20
2022-09-28T14:09:42.562Z,2.20
2022-09-28T14:12:31.284Z,1.80
2022-09-28T14:15:00.619Z,2.07
2022-09-28T14:18:00.270Z,1.60
2022-09-28T14:20:31.978Z,2.07
2022-09-28T14:23:29.929Z,1.67
2022-09-28T14:26:28.422Z,1.63
2022-09-28T14:29:09.959Z,1.50
2022-09-28T14:31:43.793Z,1.90
2022-09-28T14:34:34.250Z,1.50
2022-09-28T14:37:22.741Z,1.93
2022-09-28T14:40:09.572Z,1.70
2022-09-28T14:42:40.557Z,1.80
2022-09-28T14:45:38.935Z,1.87
2022-09-28T14:48:20.681Z,1.77
2022-09-28T14:50:50.353Z,1.70
2022-09-28T14:53:22.334Z,2.17
2022-09-28T14:55:52.754Z,1.60
2022-09-28T14:58:26.889Z,2.23
2022-09-28T15:01:01.599Z,1.90
2022-09-28T15:03:33.378Z,1.70
2022-09-28T15:06:02.863Z,2.00
2022-09-28T15:08:39.045Z,1.73
2022-09-28T15:11:12.487Z,2.10
2022-09-28T15:13:44.107Z,1.77
2022-09-28T15:16:15.038Z,1.53
2022-09-28T15:19:09.243Z,2.30
2022-09-28T15:21:42.949Z,1.87
2022-09-28T15:24:43.224Z,2.30
2022-09-28T15:27:19.065Z,1.77
2022-09-28T15:29:59.057Z,2.27
2022-09-28T15:32:29.775Z,1.77
2022-09-28T15:35:00.229Z,1.80
2022-09-28T15:37:36.494Z,2.60
2022-09-28T15:40:15.187Z,2.07
2022-09-28T15:42:45.462Z,2.30
2022-09-28T15:45:37.137Z,2.30
2022-09-28T15:48:27.711Z,3.07
2022-09-28T15:51:05.163Z,2.00
2022-09-28T15:53:35.244Z,2.40
2022-09-28T15:56:10.163Z,2.70
2022-09-28T15:58:40.591Z,2.60
2022-09-28T16:01:36.687Z,14.00
2022-09-28T16:04:36.303Z,14.70
2022-09-28T16:07:21.026Z,6.70
2022-09-28T16:10:02.251Z,3.77
2022-09-28T16:12:41.195Z,3.90
2022-09-28T16:15:18.321Z,3.43
2022-09-28T16:17:52.743Z,3.17
2022-09-28T16:20:29.851Z,2.60
2022-09-28T16:23:05.772Z,2.97
2022-09-28T16:25:37.216Z,2.70
2022-09-28T16:28:07.523Z,2.83
2022-09-28T16:30:36.988Z,2.90
2022-09-28T16:33:27.200Z,3.07
2022-09-28T16:35:56.393Z,2.70
2022-09-28T16:38:25.619Z,2.87
2022-09-28T16:40:55.173Z,3.40
2022-09-28T16:43:28.592Z,2.43
2022-09-28T16:45:58.621Z,2.87
2022-09-28T16:48:31.160Z,3.00
2022-09-28T16:51:00.802Z,2.70
2022-09-28T16:53:47.523Z,2.93
2022-09-28T16:56:16.819Z,2.87
2022-09-28T16:58:49.253Z,2.63
2022-09-28T17:01:19.727Z,3.20
2022-09-28T17:03:51.208Z,3.90
2022-09-28T17:06:22.222Z,3.57
2022-09-28T17:08:51.694Z,2.83
2022-09-28T17:11:24.617Z,2.87
2022-09-28T17:13:56.883Z,3.20
2022-09-28T17:16:49.735Z,3.20
2022-09-28T17:19:22.158Z,2.60
2022-09-28T17:21:51.458Z,2.77
2022-09-28T17:24:21.403Z,2.87
2022-09-28T17:26:52.677Z,2.73
2022-09-28T17:29:22.364Z,3.50
2022-09-28T17:31:52.186Z,2.80
2022-09-28T17:34:23.904Z,3.10
2022-09-28T17:36:53.983Z,2.67
2022-09-28T17:39:25.103Z,3.70
2022-09-28T17:41:54.277Z,3.67
2022-09-28T17:44:23.835Z,4.27
2022-09-28T17:46:54.010Z,5.10
2022-09-28T17:49:24.870Z,4.20
2022-09-28T17:51:54.311Z,4.40
2022-09-28T17:54:25.866Z,4.37
2022-09-28T17:56:55.665Z,4.13
2022-09-28T17:59:26.758Z,4.03
2022-09-28T18:01:58.319Z,3.90
2022-09-28T18:04:51.181Z,3.87
2022-09-28T18:07:21.124Z,5.20
2022-09-28T18:09:56.741Z,4.20
2022-09-28T18:12:29.052Z,3.97
2022-09-28T18:14:58.478Z,3.90
2022-09-28T18:17:28.155Z,4.57
2022-09-28T18:19:58.769Z,4.03
2022-09-28T18:22:28.166Z,3.90
2022-09-28T18:24:57.974Z,3.53
2022-09-28T18:27:28.821Z,4.50
2022-09-28T18:29:58.280Z,3.40
2022-09-28T18:32:28.022Z,3.30
2022-09-28T18:34:58.890Z,3.73
2022-09-28T18:37:28.176Z,4.13
2022-09-28T18:39:57.492Z,3.60
2022-09-28T18:42:26.953Z,3.40
2022-09-28T18:44:56.126Z,3.83
2022-09-28T18:47:25.699Z,3.70
2022-09-28T18:49:54.949Z,4.13
2022-09-28T18:52:26.182Z,3.60
2022-09-28T18:54:55.837Z,4.20
2022-09-28T18:57:25.148Z,4.83
2022-09-28T18:59:54.747Z,4.40
2022-09-28T19:02:24.132Z,5.20
2022-09-28T19:04:53.557Z,3.83
2022-09-28T19:07:24.589Z,3.60
2022-09-28T19:09:54.183Z,5.10
2022-09-28T19:12:23.936Z,5.10
2022-09-28T19:14:53.141Z,5.47
2022-09-28T19:17:22.445Z,5.90
2022-09-28T19:19:52.162Z,5.50
2022-09-28T19:22:21.646Z,4.63
2022-09-28T19:24:52.529Z,5.70
2022-09-28T19:27:22.438Z,5.43
2022-09-28T19:29:51.872Z,6.20
2022-09-28T19:32:21.314Z,6.23
2022-09-28T19:34:50.705Z,5.43
2022-09-28T19:37:20.047Z,5.10
2022-09-28T19:39:49.550Z,5.50
2022-09-28T19:42:21.290Z,4.20
2022-09-28T19:44:51.169Z,5.07
2022-09-28T19:47:28.676Z,5.57
2022-09-28T19:49:58.023Z,5.10
2022-09-28T19:52:27.081Z,5.73
2022-09-28T19:54:56.952Z,4.83
2022-09-28T19:57:29.685Z,4.70
2022-09-28T20:00:03.301Z,5.57
2022-09-28T20:02:34.929Z,6.07
2022-09-28T20:05:04.457Z,5.70
2022-09-28T20:07:34.922Z,5.20
2022-09-28T20:10:04.224Z,5.10
2022-09-28T20:12:35.162Z,4.80
2022-09-28T20:15:05.249Z,4.60
2022-09-28T20:17:34.848Z,4.80
2022-09-28T20:20:04.835Z,4.27
2022-09-28T20:22:34.498Z,5.00
2022-09-28T20:25:04.178Z,5.10
2022-09-28T20:27:35.354Z,4.13
2022-09-28T20:30:04.923Z,4.20
2022-09-28T20:32:35.245Z,3.93
2022-09-28T20:35:05.033Z,5.37
2022-09-28T20:37:34.694Z,4.60
2022-09-28T20:40:04.180Z,4.17
2022-09-28T20:42:34.817Z,3.70
2022-09-28T20:45:04.154Z,4.63
2022-09-28T20:47:33.755Z,4.53
2022-09-28T20:50:03.346Z,4.13
2022-09-28T20:52:32.500Z,3.90
2022-09-28T20:55:01.516Z,4.20
2022-09-28T20:57:31.406Z,3.80
2022-09-28T21:00:03.094Z,4.10
2022-09-28T21:02:33.636Z,4.27
2022-09-28T21:05:03.108Z,4.10
2022-09-28T21:07:32.814Z,4.57
2022-09-28T21:10:02.365Z,4.47
2022-09-28T21:12:31.890Z,6.20
2022-09-28T21:15:05.914Z,4.40
2022-09-28T21:17:35.563Z,4.80
2022-09-28T21:20:05.334Z,4.50
2022-09-28T21:22:35.906Z,5.07
2022-09-28T21:25:05.999Z,4.77
2022-09-28T21:27:35.582Z,4.87
2022-09-28T21:30:09.269Z,5.50
2022-09-28T21:32:40.213Z,4.40
2022-09-28T21:35:11.329Z,4.23
2022-09-28T21:37:41.324Z,4.57
2022-09-28T21:40:11.941Z,5.07
2022-09-28T21:42:42.986Z,4.10
2022-09-28T21:45:14.255Z,3.67
2022-09-28T21:47:47.748Z,5.47
2022-09-28T21:50:17.043Z,4.90
2022-09-28T21:52:46.343Z,4.53
2022-09-28T21:55:15.815Z,5.43
2022-09-28T21:57:46.494Z,4.80
2022-09-28T22:00:18.974Z,4.90
2022-09-28T22:02:48.999Z,4.97
2022-09-28T22:05:19.280Z,3.67
2022-09-28T22:07:48.479Z,4.50
2022-09-28T22:10:18.098Z,4.50
2022-09-28T22:12:48.219Z,3.90
2022-09-28T22:15:19.322Z,4.90
2022-09-28T22:17:48.659Z,5.40
2022-09-28T22:20:18.147Z,4.63
2022-09-28T22:22:50.915Z,5.13
2022-09-28T22:25:21.586Z,4.10
2022-09-28T22:27:50.797Z,5.70
2022-09-28T22:30:21.929Z,4.73
2022-09-28T22:32:51.214Z,4.43
2022-09-28T22:35:20.691Z,4.70
2022-09-28T22:37:50.081Z,3.90
2022-09-28T22:40:20.229Z,4.30
2022-09-28T22:42:50.266Z,3.83
2022-09-28T22:45:20.960Z,5.50
2022-09-28T22:47:51.435Z,4.93
2022-09-28T22:50:20.878Z,4.90
2022-09-28T22:52:52.078Z,4.40
2022-09-28T22:55:22.129Z,4.13
2022-09-28T22:57:51.670Z,4.27
2022-09-28T23:00:23.666Z,4.60
2022-09-28T23:02:53.472Z,4.07
2022-09-28T23:05:23.015Z,4.60
2022-09-28T23:07:52.625Z,3.50
2022-09-28T23:10:21.955Z,3.90
2022-09-28T23:12:51.280Z,4.50
2022-09-28T23:15:22.715Z,3.63
2022-09-28T23:17:53.010Z,5.00
2022-09-28T23:20:22.624Z,4.67
2022-09-28T23:22:52.311Z,4.43
2022-09-28T23:25:21.807Z,4.30
2022-09-28T23:27:51.878Z,4.27
2022-09-28T23:30:24.922Z,4.67
2022-09-28T23:32:54.419Z,5.33
2022-09-28T23:35:23.889Z,4.73
2022-09-28T23:37:53.345Z,4.27
2022-09-28T23:40:23.008Z,4.00
2022-09-28T23:42:52.996Z,4.50
2022-09-28T23:45:25.294Z,5.00
2022-09-28T23:47:55.039Z,4.57
2022-09-28T23:50:24.737Z,3.97
2022-09-28T23:52:54.165Z,5.37
2022-09-28T23:55:23.525Z,5.60
2022-09-28T23:57:55.697Z,4.73
